sensor_id;sensor_type;location;lat;lon;timestamp;temperature;humidity
63407;SHT31;49543;45.892;10.838;2023-04-24T08:05:15;14.54;87.08
63407;SHT31;49543;45.892;10.838;2023-04-24T08:07:41;14.57;86.68
63407;SHT31;49543;45.892;10.838;2023-04-24T08:10:09;14.57;86.24
63407;SHT31;49543;45.892;10.838;2023-04-24T08:12:35;14.60;84.58
63407;SHT31;49543;45.892;10.838;2023-04-24T08:15:01;14.63;83.31
63407;SHT31;49543;45.892;10.838;2023-04-24T08:17:26;14.64;84.82
63407;SHT31;49543;45.892;10.838;2023-04-24T08:19:52;14.67;83.82
63407;SHT31;49543;45.892;10.838;2023-04-24T08:22:24;14.68;83.77
63407;SHT31;49543;45.892;10.838;2023-04-24T08:24:49;14.65;83.82
63407;SHT31;49543;45.892;10.838;2023-04-24T08:27:15;14.74;84.07
63407;SHT31;49543;45.892;10.838;2023-04-24T08:29:40;14.77;83.17
63407;SHT31;49543;45.892;10.838;2023-04-24T08:32:06;14.78;83.12
63407;SHT31;49543;45.892;10.838;2023-04-24T08:34:31;14.84;83.25
63407;SHT31;49543;45.892;10.838;2023-04-24T08:36:57;14.85;83.62
63407;SHT31;49543;45.892;10.838;2023-04-24T08:39:22;14.93;83.85
63407;SHT31;49543;45.892;10.838;2023-04-24T08:41:48;14.98;83.92
63407;SHT31;49543;45.892;10.838;2023-04-24T08:44:13;15.05;84.42
63407;SHT31;49543;45.892;10.838;2023-04-24T08:46:42;15.09;85.17
63407;SHT31;49543;45.892;10.838;2023-04-24T08:49:08;15.19;85.25
63407;SHT31;49543;45.892;10.838;2023-04-24T08:51:33;15.25;85.61
63407;SHT31;49543;45.892;10.838;2023-04-24T08:53:59;15.27;86.45
63407;SHT31;49543;45.892;10.838;2023-04-24T08:56:25;15.34;86.32
63407;SHT31;49543;45.892;10.838;2023-04-24T08:58:53;15.40;86.19
63407;SHT31;49543;45.892;10.838;2023-04-24T09:01:20;15.46;85.73
63407;SHT31;49543;45.892;10.838;2023-04-24T09:03:48;15.53;86.04
63407;SHT31;49543;45.892;10.838;2023-04-24T09:06:14;15.60;86.09
63407;SHT31;49543;45.892;10.838;2023-04-24T09:08:42;15.67;85.92
63407;SHT31;49543;45.892;10.838;2023-04-24T09:11:09;15.74;85.24
63407;SHT31;49543;45.892;10.838;2023-04-24T09:13:35;15.81;84.85
63407;SHT31;49543;45.892;10.838;2023-04-24T09:16:00;15.90;84.12
63407;SHT31;49543;45.892;10.838;2023-04-24T09:18:26;15.95;81.99
63407;SHT31;49543;45.892;10.838;2023-04-24T09:21:04;16.01;81.68
63407;SHT31;49543;45.892;10.838;2023-04-24T09:23:32;16.05;82.00
63407;SHT31;49543;45.892;10.838;2023-04-24T09:25:59;16.13;81.31
63407;SHT31;49543;45.892;10.838;2023-04-24T09:28:45;16.20;80.59
63407;SHT31;49543;45.892;10.838;2023-04-24T09:31:16;16.25;80.46
63407;SHT31;49543;45.892;10.838;2023-04-24T09:36:32;16.37;79.69
63407;SHT31;49543;45.892;10.838;2023-04-24T09:39:13;16.42;78.59
63407;SHT31;49543;45.892;10.838;2023-04-24T09:41:48;16.46;78.20
63407;SHT31;49543;45.892;10.838;2023-04-24T09:44:19;16.52;78.49
63407;SHT31;49543;45.892;10.838;2023-04-24T09:47:08;16.57;78.10
63407;SHT31;49543;45.892;10.838;2023-04-24T09:49:35;16.66;77.59
63407;SHT31;49543;45.892;10.838;2023-04-24T09:52:07;16.71;76.93
63407;SHT31;49543;45.892;10.838;2023-04-24T09:54:33;16.78;76.22
63407;SHT31;49543;45.892;10.838;2023-04-24T09:56:59;16.81;74.52
63407;SHT31;49543;45.892;10.838;2023-04-24T09:59:25;16.88;74.50
63407;SHT31;49543;45.892;10.838;2023-04-24T10:01:51;16.94;73.98
63407;SHT31;49543;45.892;10.838;2023-04-24T10:04:23;17.01;74.29
63407;SHT31;49543;45.892;10.838;2023-04-24T10:06:50;17.02;73.57
63407;SHT31;49543;45.892;10.838;2023-04-24T10:09:20;16.95;71.94
63407;SHT31;49543;45.892;10.838;2023-04-24T10:11:48;16.91;71.76
63407;SHT31;49543;45.892;10.838;2023-04-24T10:14:15;16.98;72.38
63407;SHT31;49543;45.892;10.838;2023-04-24T10:16:42;17.07;72.76
63407;SHT31;49543;45.892;10.838;2023-04-24T10:19:08;17.15;72.72
63407;SHT31;49543;45.892;10.838;2023-04-24T10:21:35;17.25;72.56
63407;SHT31;49543;45.892;10.838;2023-04-24T10:24:02;17.35;72.38
63407;SHT31;49543;45.892;10.838;2023-04-24T10:26:29;17.39;71.95
63407;SHT31;49543;45.892;10.838;2023-04-24T10:28:57;17.49;71.80
63407;SHT31;49543;45.892;10.838;2023-04-24T10:31:23;17.56;71.47
63407;SHT31;49543;45.892;10.838;2023-04-24T10:33:49;17.67;70.89
63407;SHT31;49543;45.892;10.838;2023-04-24T10:36:17;17.76;70.48
63407;SHT31;49543;45.892;10.838;2023-04-24T10:38:45;17.86;68.96
63407;SHT31;49543;45.892;10.838;2023-04-24T10:41:12;18.08;70.15
63407;SHT31;49543;45.892;10.838;2023-04-24T10:43:41;18.22;70.11
63407;SHT31;49543;45.892;10.838;2023-04-24T10:46:08;18.39;69.51
63407;SHT31;49543;45.892;10.838;2023-04-24T10:48:36;18.53;68.42
63407;SHT31;49543;45.892;10.838;2023-04-24T10:51:11;18.84;67.58
63407;SHT31;49543;45.892;10.838;2023-04-24T10:53:38;18.97;67.36
63407;SHT31;49543;45.892;10.838;2023-04-24T10:56:08;19.32;68.17
63407;SHT31;49543;45.892;10.838;2023-04-24T10:58:41;19.70;68.61
63407;SHT31;49543;45.892;10.838;2023-04-24T11:01:26;20.07;67.15
63407;SHT31;49543;45.892;10.838;2023-04-24T11:04:00;20.56;67.48
63407;SHT31;49543;45.892;10.838;2023-04-24T11:06:43;21.00;66.20
63407;SHT31;49543;45.892;10.838;2023-04-24T11:09:10;21.37;63.09
63407;SHT31;49543;45.892;10.838;2023-04-24T11:11:38;21.79;62.18
63407;SHT31;49543;45.892;10.838;2023-04-24T11:14:09;22.07;60.13
63407;SHT31;49543;45.892;10.838;2023-04-24T11:16:51;22.36;59.10
63407;SHT31;49543;45.892;10.838;2023-04-24T11:19:22;22.76;59.12
63407;SHT31;49543;45.892;10.838;2023-04-24T11:27:20;23.39;56.46
63407;SHT31;49543;45.892;10.838;2023-04-24T11:32:28;24.36;56.44
63407;SHT31;49543;45.892;10.838;2023-04-24T11:35:02;24.74;56.26
63407;SHT31;49543;45.892;10.838;2023-04-24T11:37:39;25.04;54.70
63407;SHT31;49543;45.892;10.838;2023-04-24T11:40:10;25.36;54.08
63407;SHT31;49543;45.892;10.838;2023-04-24T11:42:37;25.32;53.84
63407;SHT31;49543;45.892;10.838;2023-04-24T11:45:08;25.45;53.01
63407;SHT31;49543;45.892;10.838;2023-04-24T11:47:34;25.76;52.81
63407;SHT31;49543;45.892;10.838;2023-04-24T11:50:00;26.25;51.50
63407;SHT31;49543;45.892;10.838;2023-04-24T11:52:27;26.63;50.17
63407;SHT31;49543;45.892;10.838;2023-04-24T11:54:52;27.30;49.06
63407;SHT31;49543;45.892;10.838;2023-04-24T11:57:22;27.88;49.37
63407;SHT31;49543;45.892;10.838;2023-04-24T11:59:49;27.93;48.02
63407;SHT31;49543;45.892;10.838;2023-04-24T12:02:25;28.58;47.28
63407;SHT31;49543;45.892;10.838;2023-04-24T12:04:52;28.80;47.23
63407;SHT31;49543;45.892;10.838;2023-04-24T12:07:18;28.75;47.92
63407;SHT31;49543;45.892;10.838;2023-04-24T12:09:45;28.75;44.73
63407;SHT31;49543;45.892;10.838;2023-04-24T12:12:13;28.92;45.12
63407;SHT31;49543;45.892;10.838;2023-04-24T12:17:09;29.35;45.61
63407;SHT31;49543;45.892;10.838;2023-04-24T12:19:35;29.58;44.79
63407;SHT31;49543;45.892;10.838;2023-04-24T12:22:02;29.89;44.52
63407;SHT31;49543;45.892;10.838;2023-04-24T12:24:29;30.41;44.55
63407;SHT31;49543;45.892;10.838;2023-04-24T12:26:55;30.92;42.93
63407;SHT31;49543;45.892;10.838;2023-04-24T12:29:22;30.86;43.00
63407;SHT31;49543;45.892;10.838;2023-04-24T12:31:47;31.18;42.33
63407;SHT31;49543;45.892;10.838;2023-04-24T12:34:20;31.47;42.13
63407;SHT31;49543;45.892;10.838;2023-04-24T12:36:47;31.71;41.69
63407;SHT31;49543;45.892;10.838;2023-04-24T12:39:19;31.69;42.15
63407;SHT31;49543;45.892;10.838;2023-04-24T12:41:50;31.54;42.56
63407;SHT31;49543;45.892;10.838;2023-04-24T12:44:16;31.87;42.42
63407;SHT31;49543;45.892;10.838;2023-04-24T12:46:42;32.05;41.96
63407;SHT31;49543;45.892;10.838;2023-04-24T12:49:07;32.09;42.94
63407;SHT31;49543;45.892;10.838;2023-04-24T12:51:32;31.95;42.83
63407;SHT31;49543;45.892;10.838;2023-04-24T12:53:58;31.94;42.44
63407;SHT31;49543;45.892;10.838;2023-04-24T12:56:23;32.01;42.15
63407;SHT31;49543;45.892;10.838;2023-04-24T12:58:49;31.92;42.28
63407;SHT31;49543;45.892;10.838;2023-04-24T13:01:16;31.66;42.79
63407;SHT31;49543;45.892;10.838;2023-04-24T13:03:42;30.91;43.77
63407;SHT31;49543;45.892;10.838;2023-04-24T13:06:08;30.45;45.22
63407;SHT31;49543;45.892;10.838;2023-04-24T13:08:33;29.86;45.89
63407;SHT31;49543;45.892;10.838;2023-04-24T13:10:59;29.13;44.46
63407;SHT31;49543;45.892;10.838;2023-04-24T13:13:24;28.58;45.00
63407;SHT31;49543;45.892;10.838;2023-04-24T13:15:49;27.92;46.07
63407;SHT31;49543;45.892;10.838;2023-04-24T15:17:41;19.82;62.85
63407;SHT31;49543;45.892;10.838;2023-04-24T15:20:07;19.77;63.82
63407;SHT31;49543;45.892;10.838;2023-04-24T15:22:32;19.79;66.63
63407;SHT31;49543;45.892;10.838;2023-04-24T15:24:58;19.79;68.56
63407;SHT31;49543;45.892;10.838;2023-04-24T15:27:24;19.82;69.82
63407;SHT31;49543;45.892;10.838;2023-04-24T15:29:49;19.83;71.41
63407;SHT31;49543;45.892;10.838;2023-04-24T15:32:15;19.86;72.47
63407;SHT31;49543;45.892;10.838;2023-04-24T15:34:40;19.89;74.03
63407;SHT31;49543;45.892;10.838;2023-04-24T15:37:06;19.89;73.16
63407;SHT31;49543;45.892;10.838;2023-04-24T15:39:31;19.83;72.45
63407;SHT31;49543;45.892;10.838;2023-04-24T15:41:58;19.77;72.65
63407;SHT31;49543;45.892;10.838;2023-04-24T15:44:25;19.72;73.30
63407;SHT31;49543;45.892;10.838;2023-04-24T15:46:50;19.66;72.71
63407;SHT31;49543;45.892;10.838;2023-04-24T15:49:17;19.62;74.27
63407;SHT31;49543;45.892;10.838;2023-04-24T15:51:42;19.59;74.65
63407;SHT31;49543;45.892;10.838;2023-04-24T15:54:08;19.56;74.48
63407;SHT31;49543;45.892;10.838;2023-04-24T15:56:33;19.52;74.64
63407;SHT31;49543;45.892;10.838;2023-04-24T15:59:00;19.51;74.80
63407;SHT31;49543;45.892;10.838;2023-04-24T16:01:25;19.48;76.19
63407;SHT31;49543;45.892;10.838;2023-04-24T16:03:51;19.44;75.87
63407;SHT31;49543;45.892;10.838;2023-04-24T16:06:16;19.39;75.47
63407;SHT31;49543;45.892;10.838;2023-04-24T16:08:42;19.35;75.55
63407;SHT31;49543;45.892;10.838;2023-04-24T16:11:07;19.31;75.80
63407;SHT31;49543;45.892;10.838;2023-04-24T16:13:32;19.26;75.71
63407;SHT31;49543;45.892;10.838;2023-04-24T16:15:58;19.19;76.84
63407;SHT31;49543;45.892;10.838;2023-04-24T16:18:24;19.21;77.54
63407;SHT31;49543;45.892;10.838;2023-04-24T16:20:49;19.21;76.84
63407;SHT31;49543;45.892;10.838;2023-04-24T16:23:15;19.22;76.45
63407;SHT31;49543;45.892;10.838;2023-04-24T16:25:40;19.22;76.64
63407;SHT31;49543;45.892;10.838;2023-04-24T16:28:06;19.17;77.18
63407;SHT31;49543;45.892;10.838;2023-04-24T16:30:31;19.15;77.37
63407;SHT31;49543;45.892;10.838;2023-04-24T16:32:57;19.10;76.87
63407;SHT31;49543;45.892;10.838;2023-04-24T16:35:23;19.10;76.63
63407;SHT31;49543;45.892;10.838;2023-04-24T16:37:48;19.04;76.43
63407;SHT31;49543;45.892;10.838;2023-04-24T16:40:14;19.04;76.30
63407;SHT31;49543;45.892;10.838;2023-04-24T16:42:39;19.03;76.33
63407;SHT31;49543;45.892;10.838;2023-04-24T16:45:05;19.03;76.38
63407;SHT31;49543;45.892;10.838;2023-04-24T16:47:31;19.01;77.09
63407;SHT31;49543;45.892;10.838;2023-04-24T16:49:56;19.03;76.87
63407;SHT31;49543;45.892;10.838;2023-04-24T16:52:22;18.97;77.18
63407;SHT31;49543;45.892;10.838;2023-04-24T16:54:47;18.96;77.68
63407;SHT31;49543;45.892;10.838;2023-04-24T16:57:14;18.97;76.80
63407;SHT31;49543;45.892;10.838;2023-04-24T16:59:40;18.96;76.23
63407;SHT31;49543;45.892;10.838;2023-04-24T17:02:05;18.90;75.68
63407;SHT31;49543;45.892;10.838;2023-04-24T17:04:31;18.83;75.99
63407;SHT31;49543;45.892;10.838;2023-04-24T17:07:00;18.80;76.01
63407;SHT31;49543;45.892;10.838;2023-04-24T17:09:25;18.79;76.07
63407;SHT31;49543;45.892;10.838;2023-04-24T17:11:51;18.76;75.21
63407;SHT31;49543;45.892;10.838;2023-04-24T17:14:16;18.74;75.76
63407;SHT31;49543;45.892;10.838;2023-04-24T17:16:41;18.69;75.86
63407;SHT31;49543;45.892;10.838;2023-04-24T17:19:07;18.64;76.29
63407;SHT31;49543;45.892;10.838;2023-04-24T17:21:32;18.60;76.41
63407;SHT31;49543;45.892;10.838;2023-04-24T17:23:58;18.57;75.98
63407;SHT31;49543;45.892;10.838;2023-04-24T17:26:24;18.56;76.21
63407;SHT31;49543;45.892;10.838;2023-04-24T17:28:50;18.52;75.71
63407;SHT31;49543;45.892;10.838;2023-04-24T17:31:18;18.52;76.18
63407;SHT31;49543;45.892;10.838;2023-04-24T17:33:44;18.41;76.58
63407;SHT31;49543;45.892;10.838;2023-04-24T17:36:09;18.35;76.60
63407;SHT31;49543;45.892;10.838;2023-04-24T17:38:35;18.31;77.07
63407;SHT31;49543;45.892;10.838;2023-04-24T17:41:00;18.28;77.64
63407;SHT31;49543;45.892;10.838;2023-04-24T17:43:26;18.26;77.14
63407;SHT31;49543;45.892;10.838;2023-04-24T17:45:53;18.24;77.34
63407;SHT31;49543;45.892;10.838;2023-04-24T17:48:23;18.19;76.83
63407;SHT31;49543;45.892;10.838;2023-04-24T17:50:49;18.12;76.23
63407;SHT31;49543;45.892;10.838;2023-04-24T17:53:14;18.09;76.68
63407;SHT31;49543;45.892;10.838;2023-04-24T17:55:40;18.05;76.95
63407;SHT31;49543;45.892;10.838;2023-04-24T17:58:07;17.98;76.49
63407;SHT31;49543;45.892;10.838;2023-04-24T18:00:33;17.95;76.27
63407;SHT31;49543;45.892;10.838;2023-04-24T18:03:00;17.84;76.41
63407;SHT31;49543;45.892;10.838;2023-04-24T18:05:27;17.80;76.25
63407;SHT31;49543;45.892;10.838;2023-04-24T18:07:53;17.76;76.84
63407;SHT31;49543;45.892;10.838;2023-04-24T18:10:19;17.73;76.40
63407;SHT31;49543;45.892;10.838;2023-04-24T18:12:45;17.63;76.35
63407;SHT31;49543;45.892;10.838;2023-04-24T18:15:11;17.54;76.71
63407;SHT31;49543;45.892;10.838;2023-04-24T18:17:36;17.43;77.04
63407;SHT31;49543;45.892;10.838;2023-04-24T18:20:02;17.35;76.67
63407;SHT31;49543;45.892;10.838;2023-04-24T18:22:28;17.32;77.02
63407;SHT31;49543;45.892;10.838;2023-04-24T18:24:53;17.32;77.02
63407;SHT31;49543;45.892;10.838;2023-04-24T18:27:19;17.32;76.41
63407;SHT31;49543;45.892;10.838;2023-04-24T18:29:44;17.28;76.49
63407;SHT31;49543;45.892;10.838;2023-04-24T18:32:10;17.23;77.48
63407;SHT31;49543;45.892;10.838;2023-04-24T18:34:36;17.25;77.48
63407;SHT31;49543;45.892;10.838;2023-04-24T18:37:01;17.22;76.94
63407;SHT31;49543;45.892;10.838;2023-04-24T18:39:26;17.18;76.65
63407;SHT31;49543;45.892;10.838;2023-04-24T18:41:52;17.14;76.68
63407;SHT31;49543;45.892;10.838;2023-04-24T18:44:18;17.14;77.33
63407;SHT31;49543;45.892;10.838;2023-04-24T18:46:44;17.10;77.31
63407;SHT31;49543;45.892;10.838;2023-04-24T18:49:09;17.07;76.89
63407;SHT31;49543;45.892;10.838;2023-04-24T18:51:35;17.04;76.40
63407;SHT31;49543;45.892;10.838;2023-04-24T18:54:00;16.98;76.01
63407;SHT31;49543;45.892;10.838;2023-04-24T18:56:26;17.01;76.44
63407;SHT31;49543;45.892;10.838;2023-04-24T18:58:51;16.92;76.43
63407;SHT31;49543;45.892;10.838;2023-04-24T19:01:20;16.91;76.09
63407;SHT31;49543;45.892;10.838;2023-04-24T19:03:45;16.87;76.06
63407;SHT31;49543;45.892;10.838;2023-04-24T19:06:11;16.88;76.32
63407;SHT31;49543;45.892;10.838;2023-04-24T19:08:36;16.85;75.97
63407;SHT31;49543;45.892;10.838;2023-04-24T19:11:03;16.83;75.82
63407;SHT31;49543;45.892;10.838;2023-04-24T19:13:28;16.80;76.49
63407;SHT31;49543;45.892;10.838;2023-04-24T19:15:54;16.80;76.44
63407;SHT31;49543;45.892;10.838;2023-04-24T19:18:19;16.74;76.45
63407;SHT31;49543;45.892;10.838;2023-04-24T19:20:45;16.73;77.01
63407;SHT31;49543;45.892;10.838;2023-04-24T19:23:10;16.70;77.01
63407;SHT31;49543;45.892;10.838;2023-04-24T19:25:36;16.73;77.07
63407;SHT31;49543;45.892;10.838;2023-04-24T19:28:01;16.70;76.51
63407;SHT31;49543;45.892;10.838;2023-04-24T19:30:27;16.70;76.56
63407;SHT31;49543;45.892;10.838;2023-04-24T19:32:52;16.67;76.55
63407;SHT31;49543;45.892;10.838;2023-04-24T19:35:18;16.66;76.88
63407;SHT31;49543;45.892;10.838;2023-04-24T19:37:43;16.66;77.57
63407;SHT31;49543;45.892;10.838;2023-04-24T19:40:09;16.63;77.12
63407;SHT31;49543;45.892;10.838;2023-04-24T19:42:37;16.59;77.38
63407;SHT31;49543;45.892;10.838;2023-04-24T19:45:02;16.54;77.55
63407;SHT31;49543;45.892;10.838;2023-04-24T19:47:28;16.50;76.97
63407;SHT31;49543;45.892;10.838;2023-04-24T19:49:53;16.40;76.58
63407;SHT31;49543;45.892;10.838;2023-04-24T19:52:19;16.30;77.09
63407;SHT31;49543;45.892;10.838;2023-04-24T19:54:45;16.26;77.64
63407;SHT31;49543;45.892;10.838;2023-04-24T19:57:10;16.22;78.11
63407;SHT31;49543;45.892;10.838;2023-04-24T19:59:36;16.18;78.48
63407;SHT31;49543;45.892;10.838;2023-04-24T20:02:01;16.15;78.39
63407;SHT31;49543;45.892;10.838;2023-04-24T20:04:27;16.09;78.53
63407;SHT31;49543;45.892;10.838;2023-04-24T20:06:53;16.12;78.60
63407;SHT31;49543;45.892;10.838;2023-04-24T20:09:18;16.15;78.64
63407;SHT31;49543;45.892;10.838;2023-04-24T20:11:43;16.12;78.72
63407;SHT31;49543;45.892;10.838;2023-04-24T20:14:11;16.13;79.02
63407;SHT31;49543;45.892;10.838;2023-04-24T20:16:36;16.09;79.17
63407;SHT31;49543;45.892;10.838;2023-04-24T20:19:02;16.12;79.31
63407;SHT31;49543;45.892;10.838;2023-04-24T20:21:28;16.12;78.85
63407;SHT31;49543;45.892;10.838;2023-04-24T20:23:53;16.15;78.97
63407;SHT31;49543;45.892;10.838;2023-04-24T20:26:19;16.13;79.17
63407;SHT31;49543;45.892;10.838;2023-04-24T20:28:44;16.10;78.97
63407;SHT31;49543;45.892;10.838;2023-04-24T20:31:10;16.09;78.75
63407;SHT31;49543;45.892;10.838;2023-04-24T20:33:35;16.08;78.83
63407;SHT31;49543;45.892;10.838;2023-04-24T20:36:06;16.06;78.66
63407;SHT31;49543;45.892;10.838;2023-04-24T20:38:31;16.05;78.38
63407;SHT31;49543;45.892;10.838;2023-04-24T20:40:57;16.02;78.87
63407;SHT31;49543;45.892;10.838;2023-04-24T20:43:24;16.01;79.04
63407;SHT31;49543;45.892;10.838;2023-04-24T20:45:50;16.01;78.68
63407;SHT31;49543;45.892;10.838;2023-04-24T20:48:16;16.02;78.71
63407;SHT31;49543;45.892;10.838;2023-04-24T20:50:41;15.99;78.65
63407;SHT31;49543;45.892;10.838;2023-04-24T20:53:07;15.98;78.53
63407;SHT31;49543;45.892;10.838;2023-04-24T20:55:33;15.94;78.16
63407;SHT31;49543;45.892;10.838;2023-04-24T20:57:59;15.91;78.60
63407;SHT31;49543;45.892;10.838;2023-04-24T21:00:25;15.91;78.72
63407;SHT31;49543;45.892;10.838;2023-04-24T21:02:51;15.94;79.16
63407;SHT31;49543;45.892;10.838;2023-04-24T21:05:16;15.90;79.17
63407;SHT31;49543;45.892;10.838;2023-04-24T21:07:42;15.87;79.19
63407;SHT31;49543;45.892;10.838;2023-04-24T21:10:08;15.90;79.28
63407;SHT31;49543;45.892;10.838;2023-04-24T21:12:33;15.84;79.24
63407;SHT31;49543;45.892;10.838;2023-04-24T21:14:58;15.81;79.41
63407;SHT31;49543;45.892;10.838;2023-04-24T21:17:25;15.81;79.29
63407;SHT31;49543;45.892;10.838;2023-04-24T21:19:51;15.80;79.18
63407;SHT31;49543;45.892;10.838;2023-04-24T21:22:16;15.81;79.27
63407;SHT31;49543;45.892;10.838;2023-04-24T21:24:42;15.75;79.26
63407;SHT31;49543;45.892;10.838;2023-04-24T21:27:07;15.70;79.58
63407;SHT31;49543;45.892;10.838;2023-04-24T21:29:33;15.65;79.74
63407;SHT31;49543;45.892;10.838;2023-04-24T21:32:00;15.64;79.82
63407;SHT31;49543;45.892;10.838;2023-04-24T21:34:26;15.61;79.83
63407;SHT31;49543;45.892;10.838;2023-04-24T21:36:51;15.61;80.01
63407;SHT31;49543;45.892;10.838;2023-04-24T21:39:17;15.63;80.00
